createdAt,value
2019-02-11T00:01:41.685Z,77.88
2019-02-11T00:04:12.366Z,77.88
2019-02-11T00:06:43.007Z,78.08
2019-02-11T00:09:13.921Z,78.08
2019-02-11T00:11:44.393Z,77.98
2019-02-11T00:14:14.970Z,77.97
2019-02-11T00:16:45.551Z,77.97
2019-02-11T00:19:16.144Z,77.86
2019-02-11T00:21:46.693Z,77.91
2019-02-11T00:24:17.169Z,77.38
2019-02-11T00:26:47.698Z,77.58
2019-02-11T00:29:18.202Z,77.42
2019-02-11T00:31:48.775Z,76.64
2019-02-11T00:34:19.370Z,75.90
2019-02-11T00:36:49.750Z,76.11
2019-02-11T00:39:20.254Z,76.11
2019-02-11T00:41:50.769Z,76.17
2019-02-11T00:44:21.290Z,75.97
2019-02-11T00:46:52.060Z,75.64
2019-02-11T00:49:23.370Z,75.91
2019-02-11T00:51:53.981Z,75.80
2019-02-11T00:54:24.561Z,75.83
2019-02-11T00:56:55.020Z,75.83
2019-02-11T00:59:25.670Z,75.74
2019-02-11T01:01:56.180Z,75.61
2019-02-11T01:04:26.600Z,75.55
2019-02-11T01:06:57.186Z,74.91
2019-02-11T01:09:27.711Z,75.15
2019-02-11T01:11:58.280Z,75.04
2019-02-11T01:14:28.780Z,74.88
2019-02-11T01:16:59.176Z,74.77
2019-02-11T01:19:29.849Z,74.94
2019-02-11T01:22:00.526Z,74.90
2019-02-11T01:24:31.091Z,75.03
2019-02-11T01:27:01.637Z,75.35
2019-02-11T01:29:32.065Z,75.88
2019-02-11T01:32:02.642Z,75.93
2019-02-11T01:34:34.760Z,76.07
2019-02-11T01:37:05.190Z,75.83
2019-02-11T01:39:35.679Z,75.89
2019-02-11T01:42:06.228Z,76.02
2019-02-11T01:44:36.639Z,75.82
2019-02-11T01:47:08.922Z,75.72
2019-02-11T01:49:39.357Z,75.92
2019-02-11T01:52:09.839Z,75.87
2019-02-11T01:54:40.296Z,75.94
2019-02-11T01:57:10.799Z,75.79
2019-02-11T01:59:41.199Z,75.80
2019-02-11T02:02:11.700Z,75.67
2019-02-11T02:04:42.919Z,75.57
2019-02-11T02:07:13.518Z,75.80
2019-02-11T02:09:44.034Z,75.79
2019-02-11T02:12:14.531Z,75.93
2019-02-11T02:14:45.472Z,75.86
2019-02-11T02:17:15.955Z,75.93
2019-02-11T02:19:46.562Z,76.05
2019-02-11T02:22:17.875Z,76.25
2019-02-11T02:24:48.470Z,76.44
2019-02-11T02:27:19.073Z,76.70
2019-02-11T02:29:49.531Z,76.85
2019-02-11T02:32:20.103Z,76.98
2019-02-11T02:34:50.630Z,77.06
2019-02-11T02:37:21.868Z,77.42
2019-02-11T02:39:52.320Z,77.50
2019-02-11T02:42:23.109Z,77.54
2019-02-11T02:44:53.586Z,77.31
2019-02-11T02:47:24.101Z,77.58
2019-02-11T02:49:54.609Z,77.77
2019-02-11T02:52:25.146Z,77.91
2019-02-11T02:54:55.972Z,78.11
2019-02-11T02:57:26.435Z,78.19
2019-02-11T02:59:56.965Z,77.97
2019-02-11T03:02:27.488Z,77.74
2019-02-11T03:04:57.921Z,77.31
2019-02-11T03:07:28.509Z,76.86
2019-02-11T03:09:58.836Z,76.31
2019-02-11T03:12:29.404Z,76.47
2019-02-11T03:15:00.009Z,76.55
2019-02-11T03:17:30.583Z,76.46
2019-02-11T03:20:01.080Z,76.36
2019-02-11T03:22:31.494Z,76.49
2019-02-11T03:25:02.020Z,76.79
2019-02-11T03:27:32.601Z,76.72
2019-02-11T03:30:03.620Z,76.58
2019-02-11T03:32:34.097Z,76.39
2019-02-11T03:35:04.904Z,76.53
2019-02-11T03:37:35.555Z,76.62
2019-02-11T03:40:06.803Z,76.35
2019-02-11T03:42:37.405Z,76.06
2019-02-11T03:45:09.539Z,76.25
2019-02-11T03:47:40.065Z,75.97
2019-02-11T03:50:11.072Z,75.77
2019-02-11T03:52:41.573Z,75.79
2019-02-11T03:55:12.116Z,75.57
2019-02-11T03:57:42.685Z,75.78
2019-02-11T04:00:13.383Z,75.42
2019-02-11T04:02:44.038Z,75.58
2019-02-11T04:05:14.661Z,75.18
2019-02-11T04:07:45.545Z,75.25
2019-02-11T04:10:15.955Z,75.08
2019-02-11T04:12:46.471Z,74.90
2019-02-11T04:15:16.875Z,74.98
2019-02-11T04:17:47.412Z,74.74
2019-02-11T04:20:17.991Z,74.64
2019-02-11T04:22:48.567Z,74.46
2019-02-11T04:25:19.015Z,74.78
2019-02-11T04:27:49.515Z,74.61
2019-02-11T04:30:20.149Z,74.68
2019-02-11T04:32:50.736Z,74.61
2019-02-11T04:35:21.260Z,74.79
2019-02-11T04:37:51.961Z,74.66
2019-02-11T04:40:22.734Z,74.08
2019-02-11T04:42:53.138Z,74.26
2019-02-11T04:45:24.156Z,73.96
2019-02-11T04:47:54.759Z,73.46
2019-02-11T04:50:25.292Z,72.92
2019-02-11T04:52:55.760Z,73.13
2019-02-11T04:55:26.161Z,72.60
2019-02-11T04:57:56.614Z,72.28
2019-02-11T05:00:27.156Z,72.30
2019-02-11T05:02:57.859Z,71.90
2019-02-11T05:05:28.425Z,72.26
2019-02-11T05:07:58.931Z,71.91
2019-02-11T05:10:29.491Z,72.55
2019-02-11T05:13:00.003Z,74.24
2019-02-11T05:15:30.520Z,74.14
2019-02-11T05:18:01.013Z,75.00
2019-02-11T05:20:31.500Z,75.41
2019-02-11T05:23:01.984Z,74.93
2019-02-11T05:25:32.419Z,74.41
2019-02-11T05:28:02.819Z,74.75
2019-02-11T05:30:33.397Z,74.81
2019-02-11T05:33:03.884Z,75.13
2019-02-11T05:35:34.691Z,75.35
2019-02-11T05:38:05.225Z,75.15
2019-02-11T05:40:35.850Z,75.37
2019-02-11T05:43:06.384Z,74.53
2019-02-11T05:45:36.908Z,73.87
2019-02-11T05:48:07.579Z,73.29
2019-02-11T05:50:41.370Z,72.62
2019-02-11T05:53:11.855Z,73.33
2019-02-11T05:55:42.358Z,72.38
2019-02-11T05:58:12.953Z,72.78
2019-02-11T06:00:43.543Z,72.98
2019-02-11T06:03:14.263Z,73.51
2019-02-11T06:05:44.808Z,73.53
2019-02-11T06:08:15.391Z,73.45
2019-02-11T06:10:45.997Z,73.84
2019-02-11T06:13:16.501Z,74.16
2019-02-11T06:15:47.202Z,73.74
2019-02-11T06:18:18.259Z,74.29
2019-02-11T06:20:48.844Z,73.97
2019-02-11T06:23:19.463Z,74.87
2019-02-11T06:25:50.180Z,75.91
2019-02-11T06:28:20.641Z,77.80
2019-02-11T06:30:51.420Z,80.37
2019-02-11T06:33:21.847Z,81.49
2019-02-11T06:35:52.360Z,82.46
2019-02-11T06:38:22.884Z,83.60
2019-02-11T06:40:53.704Z,83.96
2019-02-11T06:43:24.235Z,84.36
2019-02-11T06:45:54.871Z,85.03
2019-02-11T06:48:25.468Z,85.38
2019-02-11T06:50:56.165Z,85.66
2019-02-11T06:53:26.720Z,86.15
2019-02-11T06:55:57.146Z,86.51
2019-02-11T06:58:27.812Z,86.90
2019-02-11T07:00:58.412Z,86.95
2019-02-11T07:03:29.963Z,87.19
2019-02-11T07:06:00.550Z,87.56
2019-02-11T07:08:31.099Z,87.80
2019-02-11T07:11:01.671Z,87.89
2019-02-11T07:13:32.188Z,88.07
2019-02-11T07:16:02.951Z,88.11
2019-02-11T07:18:33.505Z,88.26
2019-02-11T07:21:04.161Z,88.44
2019-02-11T07:23:34.802Z,88.69
2019-02-11T07:26:06.320Z,88.87
2019-02-11T07:28:36.783Z,89.03
2019-02-11T07:31:07.284Z,89.08
2019-02-11T07:33:37.960Z,89.13
2019-02-11T07:36:08.562Z,89.14
2019-02-11T07:38:39.013Z,89.03
2019-02-11T07:41:09.621Z,89.20
2019-02-11T07:43:59.001Z,89.19
2019-02-11T07:46:33.995Z,88.86
2019-02-11T07:49:04.650Z,89.21
2019-02-11T07:51:42.180Z,89.17
2019-02-11T07:54:07.385Z,89.18
2019-02-11T07:56:37.959Z,89.18
2019-02-11T07:59:08.472Z,89.02
2019-02-11T08:01:39.070Z,89.00
2019-02-11T08:04:09.657Z,89.03
2019-02-11T08:06:40.405Z,89.35
2019-02-11T08:09:12.331Z,89.50
2019-02-11T08:11:43.120Z,89.57
2019-02-11T08:14:13.986Z,89.43
2019-02-11T08:16:44.492Z,89.45
2019-02-11T08:19:14.961Z,89.55
2019-02-11T08:21:45.602Z,89.71
2019-02-11T08:24:16.195Z,89.67
2019-02-11T08:26:46.905Z,89.74
2019-02-11T08:29:17.486Z,89.85
2019-02-11T08:31:48.241Z,89.89
2019-02-11T08:34:18.792Z,90.04
2019-02-11T08:36:49.411Z,89.90
2019-02-11T08:39:20.159Z,89.95
2019-02-11T08:41:50.681Z,89.96
2019-02-11T08:44:21.355Z,89.85
2019-02-11T08:46:51.959Z,89.71
2019-02-11T08:49:22.602Z,89.58
2019-02-11T08:51:53.343Z,89.46
2019-02-11T08:54:23.925Z,89.47
2019-02-11T08:56:54.560Z,89.87
2019-02-11T08:59:25.143Z,90.09
2019-02-11T09:01:55.825Z,90.04
2019-02-11T09:04:26.515Z,90.00
2019-02-11T09:06:57.174Z,89.91
2019-02-11T09:09:27.660Z,89.89
2019-02-11T09:11:58.155Z,89.88
2019-02-11T09:14:28.780Z,89.85
2019-02-11T09:16:59.392Z,89.59
2019-02-11T09:19:29.965Z,89.39
2019-02-11T09:22:07.364Z,89.48
2019-02-11T09:24:34.897Z,89.55
2019-02-11T09:27:05.774Z,89.86
2019-02-11T09:29:36.326Z,90.13
2019-02-11T09:32:06.916Z,90.28
2019-02-11T09:34:37.550Z,90.48
2019-02-11T09:37:08.173Z,90.32
2019-02-11T09:39:38.713Z,90.30
2019-02-11T09:42:09.415Z,90.37
2019-02-11T09:44:40.621Z,90.46
2019-02-11T09:47:11.191Z,90.40
2019-02-11T09:49:41.920Z,90.32
2019-02-11T09:52:12.553Z,90.30
2019-02-11T09:54:43.071Z,90.33
2019-02-11T09:57:13.712Z,90.27
2019-02-11T09:59:44.165Z,90.23
2019-02-11T10:02:14.789Z,90.13
2019-02-11T10:04:45.431Z,90.06
2019-02-11T10:07:15.977Z,90.22
2019-02-11T10:09:47.914Z,90.04
2019-02-11T10:12:21.411Z,89.75
2019-02-11T10:14:50.897Z,89.57
2019-02-11T10:17:29.519Z,89.18
2019-02-11T10:19:53.720Z,88.62
2019-02-11T10:22:24.242Z,88.30
2019-02-11T10:24:54.920Z,87.91
2019-02-11T10:27:26.683Z,87.17
2019-02-11T10:29:57.189Z,87.24
2019-02-11T10:32:27.850Z,87.81
2019-02-11T10:34:58.453Z,88.46
2019-02-11T10:37:29.031Z,88.69
2019-02-11T10:39:59.618Z,88.80
2019-02-11T10:42:30.126Z,88.65
2019-02-11T10:45:00.588Z,88.20
2019-02-11T10:47:31.148Z,87.85
2019-02-11T10:50:01.660Z,87.02
2019-02-11T10:52:32.184Z,86.05
2019-02-11T10:55:02.871Z,85.31
2019-02-11T10:57:33.386Z,84.77
2019-02-11T11:00:04.182Z,84.41
2019-02-11T11:02:34.980Z,83.86
2019-02-11T11:05:06.695Z,84.75
2019-02-11T11:07:37.322Z,85.07
2019-02-11T11:10:12.628Z,85.58
2019-02-11T11:12:43.595Z,85.56
2019-02-11T11:15:14.242Z,86.42
2019-02-11T11:17:44.803Z,87.76
2019-02-11T11:20:17.410Z,88.26
2019-02-11T11:22:47.955Z,88.45
2019-02-11T11:25:19.316Z,88.00
2019-02-11T11:27:49.731Z,87.77
2019-02-11T11:30:20.547Z,87.43
2019-02-11T11:32:51.176Z,87.16
2019-02-11T11:35:21.818Z,87.31
2019-02-11T11:37:52.716Z,87.16
2019-02-11T11:40:23.459Z,87.08
2019-02-11T11:42:54.034Z,86.40
2019-02-11T11:45:24.617Z,85.58
2019-02-11T11:47:55.168Z,85.93
2019-02-11T11:50:25.854Z,85.44
2019-02-11T11:52:56.518Z,85.41
2019-02-11T11:55:27.834Z,84.67
2019-02-11T11:57:58.806Z,80.92
2019-02-11T12:00:30.222Z,82.07
2019-02-11T12:03:04.294Z,81.26
2019-02-11T12:05:33.256Z,82.50
2019-02-11T12:08:03.950Z,83.65
2019-02-11T12:10:34.944Z,83.21
2019-02-11T12:13:21.771Z,82.43
2019-02-11T12:15:37.786Z,82.56
2019-02-11T12:18:08.453Z,82.27
2019-02-11T12:20:39.114Z,81.40
2019-02-11T12:23:09.721Z,82.33
2019-02-11T12:25:40.473Z,81.63
2019-02-11T12:28:11.015Z,82.94
2019-02-11T12:30:42.096Z,83.75
2019-02-11T12:33:12.944Z,84.57
2019-02-11T12:35:43.571Z,84.74
2019-02-11T12:38:14.244Z,84.71
2019-02-11T12:40:44.882Z,84.46
2019-02-11T12:43:15.646Z,84.02
2019-02-11T12:45:46.258Z,83.95
2019-02-11T12:48:16.771Z,83.99
2019-02-11T12:50:47.343Z,84.31
2019-02-11T12:53:17.931Z,84.93
2019-02-11T12:55:48.653Z,84.16
2019-02-11T12:58:19.260Z,84.05
2019-02-11T13:00:50.036Z,84.10
2019-02-11T13:03:20.665Z,84.80
2019-02-11T13:05:52.742Z,84.87
2019-02-11T13:08:23.419Z,85.16
2019-02-11T13:10:54.111Z,85.63
2019-02-11T13:13:24.907Z,86.38
2019-02-11T13:16:01.483Z,86.94
2019-02-11T13:18:28.358Z,87.20
2019-02-11T13:20:59.073Z,86.38
2019-02-11T13:23:29.595Z,86.31
2019-02-11T13:26:00.253Z,86.31
2019-02-11T13:28:31.273Z,86.37
2019-02-11T13:31:01.936Z,85.65
2019-02-11T13:33:32.478Z,85.93
2019-02-11T13:36:03.070Z,85.62
2019-02-11T13:38:33.589Z,84.16
2019-02-11T13:41:04.205Z,83.19
2019-02-11T13:43:34.873Z,83.25
2019-02-11T13:46:05.626Z,81.90
2019-02-11T13:48:36.167Z,81.14
2019-02-11T13:51:06.811Z,81.86
2019-02-11T13:53:37.414Z,81.71
2019-02-11T13:56:08.417Z,80.79
2019-02-11T13:58:39.049Z,80.23
2019-02-11T14:01:11.852Z,80.16
2019-02-11T14:03:42.384Z,79.56
2019-02-11T14:06:13.171Z,77.65
2019-02-11T14:08:43.841Z,77.12
2019-02-11T14:11:15.340Z,75.52
2019-02-11T14:14:01.388Z,76.23
2019-02-11T14:16:18.328Z,75.16
2019-02-11T14:18:48.945Z,75.70
2019-02-11T14:21:19.633Z,75.66
2019-02-11T14:23:50.286Z,75.80
2019-02-11T14:26:21.396Z,74.41
2019-02-11T14:28:52.592Z,74.64
2019-02-11T14:31:23.566Z,74.33
2019-02-11T14:33:54.157Z,72.13
2019-02-11T14:36:24.895Z,70.88
2019-02-11T14:38:55.527Z,69.80
2019-02-11T14:41:26.134Z,70.74
2019-02-11T14:43:56.557Z,70.38
2019-02-11T14:46:27.219Z,70.85
2019-02-11T14:48:57.916Z,70.69
2019-02-11T14:51:28.426Z,71.77
2019-02-11T14:53:59.065Z,70.90
2019-02-11T14:56:29.594Z,70.81
2019-02-11T14:59:00.185Z,71.99
2019-02-11T15:01:30.723Z,71.43
2019-02-11T15:04:01.311Z,71.35
2019-02-11T15:06:31.859Z,71.40
2019-02-11T15:09:02.582Z,69.92
2019-02-11T15:11:33.080Z,70.08
2019-02-11T15:14:03.651Z,70.20
2019-02-11T15:16:34.353Z,69.59
2019-02-11T15:19:04.862Z,69.90
2019-02-11T15:21:35.440Z,70.33
2019-02-11T15:24:06.076Z,71.07
2019-02-11T15:26:36.873Z,70.80
2019-02-11T15:29:07.532Z,71.19
2019-02-11T15:31:38.297Z,71.08
2019-02-11T15:34:08.979Z,70.43
2019-02-11T15:36:39.619Z,70.81
2019-02-11T15:39:10.675Z,71.57
2019-02-11T15:41:41.536Z,72.82
2019-02-11T15:44:12.297Z,74.71
2019-02-11T15:46:44.223Z,74.86
2019-02-11T15:49:14.851Z,75.11
2019-02-11T15:51:45.572Z,75.74
2019-02-11T15:54:16.191Z,75.47
2019-02-11T15:56:46.979Z,74.71
2019-02-11T15:59:18.032Z,74.83
2019-02-11T16:01:48.723Z,74.74
2019-02-11T16:04:19.591Z,74.46
2019-02-11T16:06:50.375Z,74.85
2019-02-11T16:09:21.025Z,74.19
2019-02-11T16:11:52.600Z,73.77
2019-02-11T16:14:23.430Z,73.66
2019-02-11T16:16:57.175Z,73.93
2019-02-11T16:19:27.970Z,73.46
2019-02-11T16:21:58.523Z,74.04
2019-02-11T16:24:29.355Z,73.44
2019-02-11T16:27:00.164Z,73.16
2019-02-11T16:29:31.157Z,73.41
2019-02-11T16:32:01.964Z,73.50
2019-02-11T16:34:32.561Z,73.55
2019-02-11T16:37:03.116Z,73.53
2019-02-11T16:39:33.950Z,74.15
2019-02-11T16:42:04.599Z,74.08
2019-02-11T16:44:35.290Z,73.85
2019-02-11T16:47:06.155Z,75.24
2019-02-11T16:49:36.936Z,75.38
2019-02-11T16:52:13.680Z,75.17
2019-02-11T16:54:48.649Z,75.23
2019-02-11T16:57:19.870Z,75.91
2019-02-11T16:59:53.047Z,75.62
2019-02-11T17:02:23.936Z,75.30
2019-02-11T17:04:54.695Z,74.89
2019-02-11T17:07:25.401Z,75.25
2019-02-11T17:09:56.131Z,75.75
2019-02-11T17:12:26.920Z,75.93
2019-02-11T17:14:58.744Z,76.17
2019-02-11T17:17:30.535Z,76.14
2019-02-11T17:20:04.311Z,76.02
2019-02-11T17:22:37.162Z,77.24
2019-02-11T17:25:09.028Z,78.06
2019-02-11T17:27:39.758Z,78.38
2019-02-11T17:30:16.570Z,81.89
2019-02-11T17:32:53.380Z,83.15
2019-02-11T17:35:24.610Z,84.20
2019-02-11T17:37:55.640Z,84.69
2019-02-11T17:40:38.419Z,85.05
2019-02-11T17:43:10.655Z,84.79
2019-02-11T17:45:44.607Z,84.47
2019-02-11T17:48:17.015Z,84.28
2019-02-11T17:50:48.816Z,84.35
2019-02-11T17:53:20.109Z,83.75
2019-02-11T17:55:57.692Z,83.13
2019-02-11T17:58:28.955Z,83.48
2019-02-11T18:01:04.558Z,83.66
2019-02-11T18:03:38.420Z,84.19
2019-02-11T18:06:13.571Z,84.56
2019-02-11T18:08:45.819Z,85.19
2019-02-11T18:11:19.963Z,85.14
2019-02-11T18:13:51.817Z,84.41
2019-02-11T18:16:24.543Z,83.71
2019-02-11T18:18:56.838Z,81.76
2019-02-11T18:21:27.905Z,81.92
2019-02-11T18:24:01.016Z,81.37
2019-02-11T18:26:34.979Z,81.26
2019-02-11T18:29:12.677Z,81.35
2019-02-11T18:31:43.875Z,81.21
2019-02-11T18:34:16.391Z,81.16
2019-02-11T18:36:51.765Z,80.89
2019-02-11T18:39:22.440Z,80.78
2019-02-11T18:41:59.311Z,80.49
2019-02-11T18:44:33.994Z,80.42
2019-02-11T18:47:07.028Z,80.47
2019-02-11T18:49:41.185Z,80.96
2019-02-11T18:52:13.091Z,81.26
2019-02-11T18:54:43.852Z,81.78
2019-02-11T18:57:18.916Z,82.16
2019-02-11T18:59:49.893Z,82.11
2019-02-11T19:02:26.611Z,82.13
2019-02-11T19:05:03.325Z,82.28
2019-02-11T19:07:37.153Z,82.20
2019-02-11T19:10:17.290Z,82.28
2019-02-11T19:12:53.276Z,82.00
2019-02-11T19:15:24.017Z,81.84
2019-02-11T19:18:06.295Z,81.84
2019-02-11T19:20:41.719Z,81.58
2019-02-11T19:23:19.315Z,81.04
2019-02-11T19:25:57.176Z,81.01
2019-02-11T19:28:29.735Z,81.60
2019-02-11T19:31:03.154Z,80.64
2019-02-11T19:33:33.874Z,79.94
2019-02-11T19:36:10.275Z,80.34
2019-02-11T19:38:42.660Z,81.06
2019-02-11T19:41:17.626Z,81.46
2019-02-11T19:43:48.821Z,82.26
2019-02-11T19:46:22.158Z,82.44
2019-02-11T19:48:53.372Z,82.98
2019-02-11T19:51:31.485Z,82.97
2019-02-11T19:54:04.377Z,82.71
2019-02-11T19:56:38.916Z,81.91
2019-02-11T19:59:16.576Z,81.51
2019-02-11T20:01:48.425Z,79.95
2019-02-11T20:04:28.697Z,79.62
2019-02-11T20:07:02.600Z,79.74
2019-02-11T20:09:37.986Z,79.92
2019-02-11T20:12:11.736Z,79.59
2019-02-11T20:14:44.947Z,78.74
2019-02-11T20:17:27.221Z,78.74
2019-02-11T20:20:00.601Z,78.39
2019-02-11T20:22:36.691Z,78.81
2019-02-11T20:25:14.321Z,79.60
2019-02-11T20:27:46.127Z,80.98
2019-02-11T20:30:24.169Z,81.47
2019-02-11T20:33:01.087Z,82.04
2019-02-11T20:35:32.967Z,81.37
2019-02-11T20:38:04.650Z,81.92
2019-02-11T20:40:37.180Z,82.24
2019-02-11T20:43:09.061Z,81.71
2019-02-11T20:45:43.125Z,81.61
2019-02-11T20:48:17.419Z,80.74
2019-02-11T20:50:49.233Z,80.19
2019-02-11T20:53:23.389Z,80.40
2019-02-11T20:55:54.228Z,79.58
2019-02-11T20:58:33.671Z,79.98
2019-02-11T21:01:13.420Z,79.41
2019-02-11T21:03:45.181Z,79.18
2019-02-11T21:06:19.121Z,79.27
2019-02-11T21:08:52.229Z,77.94
2019-02-11T21:11:26.284Z,78.19
2019-02-11T21:14:14.576Z,77.81
2019-02-11T21:16:48.671Z,77.76
2019-02-11T21:19:23.585Z,78.08
2019-02-11T21:22:00.570Z,78.22
2019-02-11T21:24:33.542Z,79.09
2019-02-11T21:27:07.903Z,79.53
2019-02-11T21:29:42.822Z,80.15
2019-02-11T21:32:13.657Z,79.94
2019-02-11T21:34:44.446Z,79.98
2019-02-11T21:37:15.180Z,80.21
2019-02-11T21:39:46.696Z,80.06
2019-02-11T21:42:17.251Z,79.74
2019-02-11T21:44:47.926Z,78.78
2019-02-11T21:47:18.476Z,78.95
2019-02-11T21:49:49.102Z,79.14
2019-02-11T21:52:19.570Z,79.23
2019-02-11T21:54:50.255Z,77.89
2019-02-11T21:57:20.906Z,76.96
2019-02-11T21:59:51.561Z,76.48
2019-02-11T22:02:22.256Z,76.07
2019-02-11T22:04:53.400Z,75.22
2019-02-11T22:07:28.551Z,73.87
2019-02-11T22:09:59.304Z,73.77
2019-02-11T22:12:29.965Z,73.11
2019-02-11T22:15:00.622Z,72.75
2019-02-11T22:17:31.589Z,72.15
2019-02-11T22:20:02.309Z,72.11
2019-02-11T22:22:32.909Z,72.36
2019-02-11T22:25:03.555Z,71.81
2019-02-11T22:27:34.289Z,71.17
2019-02-11T22:30:10.137Z,70.90
2019-02-11T22:32:48.988Z,71.49
2019-02-11T22:35:28.420Z,71.40
2019-02-11T22:38:08.841Z,70.89
2019-02-11T22:40:49.414Z,71.23
2019-02-11T22:43:30.461Z,71.19
2019-02-11T22:46:13.261Z,70.42
2019-02-11T22:48:53.242Z,70.88
2019-02-11T22:51:25.213Z,70.16
2019-02-11T22:54:03.903Z,70.70
2019-02-11T22:56:34.962Z,70.76
2019-02-11T22:59:06.012Z,70.82
2019-02-11T23:01:37.241Z,71.38
2019-02-11T23:04:08.094Z,71.86
2019-02-11T23:06:39.050Z,72.32
2019-02-11T23:09:13.118Z,71.77
2019-02-11T23:11:44.102Z,70.71
2019-02-11T23:14:15.070Z,71.72
2019-02-11T23:16:46.100Z,71.04
2019-02-11T23:19:17.014Z,71.82
2019-02-11T23:21:47.879Z,71.26
2019-02-11T23:24:18.778Z,71.61
2019-02-11T23:26:49.660Z,71.31
2019-02-11T23:29:20.722Z,71.67
2019-02-11T23:31:51.338Z,71.35
2019-02-11T23:34:21.970Z,72.13
2019-02-11T23:36:52.613Z,72.28
2019-02-11T23:39:23.130Z,72.68
2019-02-11T23:41:53.849Z,72.99
2019-02-11T23:44:25.275Z,72.88
2019-02-11T23:46:56.070Z,73.25
2019-02-11T23:49:26.641Z,73.83
2019-02-11T23:51:57.182Z,73.77
2019-02-11T23:54:27.761Z,74.09
2019-02-11T23:56:58.275Z,74.58
2019-02-11T23:59:29.152Z,74.93
